Trondheim, Norway

9:48 AM CET on October 26, 2014 (GMT +0100)
Kvislabakken | Change Station
CLOSE
Current Station
Personal Weather Station
Location: Stjørdal, NORD-TRøNDELAG
Elevation: 16 ft
Nearby Weather Stations

Elev 16 ft 63.48 °N, 10.90 °E | Updated 1 second ago

Clear
Clear
58.8 °F
Feels Like 58.8 °F
N
8.7
Wind Variable Wind from SSE
Gusts 21.3 mph

Today
High -- | Low -- °F
--% Chance of Precip.
Yesterday
High -- | Low -- °F
Precip. -- in
7:36 AM 4:22 PM
Waxing Crescent, 6% visible
Pressure 29.27 in
Visibility -9999.0 miles
Clouds
Dew Point 40 °F
Humidity 49%
Rainfall 0.00 in
Snow Depth Not available.
UV Not available.
Pollen Not available.
Air Quality Not available.
Flu Activity Not available.
METAR ENVA 260820Z 17017G28KT 140V210 CAVOK 12/03 Q0991 TEMPO 16022G35KT RMK WIND 670FT 18029G47KT

More Conditions Fewer Conditions

Pressure 29.27 in
Visibility -9999.0 miles
Clouds
Dew Point 40 °F
Humidity 49%
Rainfall 0.00 in
Snow Depth Not available.
UV Not available.
Pollen Not available.
Air Quality Not available.
Flu Activity Not available.
METAR ENVA 260820Z 17017G28KT 140V210 CAVOK 12/03 Q0991 TEMPO 16022G35KT RMK WIND 670FT 18029G47KT

More Conditions Fewer Conditions

10-Day Weather Forecast

Almanac

Astronomy

Oct. 26, 2014 Rise Set
Actual Time 7:36 AM CET 4:22 PM CET
Civil Twilight 6:46 AM CET 5:12 PM CET
Nautical Twilight 5:52 AM CET 6:07 PM CET
Astronomical Twilight 4:58 AM CET 7:00 PM CET
Moon 10:37 AM CET 5:39 PM CET
Length of Visible Light 10h 25m
Length of Day
8h 46m
Tomorrow will be 6m 15s shorter.
Waxing Crescent, 6% of the Moon is Illuminated
Today
Waxing Crescent
Oct 30
First Quarter
Nov 6
Full
Nov 14
Last Quarter
Nov 22
New

Yesterday's Extremes

Country Highs Country Lows

Community

WunderPhotos

Upload Photos

1,765,127 photos uploaded!

Nearby

Snow Depth

Not available.

Earthquake Activity

City Distance Mag. Time & Date
No recent earthquake activity has been reported nearby.
Minimum magnitude displayed is 2.5.

Coastal Water Temperatures

Place Temperature
No Stations Reporting

Nearby Weather Stations